sensor_id;sensor_type;location;lat;lon;timestamp;P1;durP1;ratioP1;P2;durP2;ratioP2
35026;SDS011;60696;51.426;6.934;2022-07-04T00:00:13;3.28;;;1.60;;
35026;SDS011;60696;51.426;6.934;2022-07-04T00:02:41;3.35;;;1.23;;
35026;SDS011;60696;51.426;6.934;2022-07-04T00:05:08;4.85;;;1.23;;
35026;SDS011;60696;51.426;6.934;2022-07-04T00:07:42;10.73;;;1.63;;
35026;SDS011;60696;51.426;6.934;2022-07-04T00:10:10;12.68;;;1.73;;
35026;SDS011;60696;51.426;6.934;2022-07-04T00:12:37;5.85;;;2.00;;
35026;SDS011;60696;51.426;6.934;2022-07-04T00:15:04;3.72;;;1.40;;
35026;SDS011;60696;51.426;6.934;2022-07-04T00:17:31;3.28;;;1.40;;
35026;SDS011;60696;51.426;6.934;2022-07-04T00:19:57;2.70;;;1.05;;
35026;SDS011;60696;51.426;6.934;2022-07-04T00:22:22;4.35;;;1.10;;
35026;SDS011;60696;51.426;6.934;2022-07-04T00:24:48;3.90;;;0.98;;
35026;SDS011;60696;51.426;6.934;2022-07-04T00:27:14;5.78;;;1.60;;
35026;SDS011;60696;51.426;6.934;2022-07-04T00:29:40;3.60;;;1.30;;
35026;SDS011;60696;51.426;6.934;2022-07-04T00:32:06;3.95;;;1.15;;
35026;SDS011;60696;51.426;6.934;2022-07-04T00:34:32;2.58;;;1.05;;
35026;SDS011;60696;51.426;6.934;2022-07-04T00:36:57;3.90;;;1.20;;
35026;SDS011;60696;51.426;6.934;2022-07-04T00:39:23;5.03;;;1.52;;
35026;SDS011;60696;51.426;6.934;2022-07-04T00:41:49;3.78;;;1.10;;
35026;SDS011;60696;51.426;6.934;2022-07-04T00:44:14;3.17;;;0.90;;
35026;SDS011;60696;51.426;6.934;2022-07-04T00:46:41;2.50;;;1.02;;
35026;SDS011;60696;51.426;6.934;2022-07-04T00:49:08;1.77;;;0.60;;
35026;SDS011;60696;51.426;6.934;2022-07-04T00:51:34;1.88;;;0.88;;
35026;SDS011;60696;51.426;6.934;2022-07-04T00:54:01;5.20;;;1.08;;
35026;SDS011;60696;51.426;6.934;2022-07-04T00:56:27;2.97;;;0.95;;
35026;SDS011;60696;51.426;6.934;2022-07-04T00:58:54;2.72;;;0.98;;
35026;SDS011;60696;51.426;6.934;2022-07-04T01:01:20;4.32;;;1.25;;
35026;SDS011;60696;51.426;6.934;2022-07-04T01:03:46;3.45;;;0.80;;
35026;SDS011;60696;51.426;6.934;2022-07-04T01:06:13;4.68;;;1.13;;
35026;SDS011;60696;51.426;6.934;2022-07-04T01:08:40;3.05;;;1.00;;
35026;SDS011;60696;51.426;6.934;2022-07-04T01:11:07;4.40;;;1.13;;
35026;SDS011;60696;51.426;6.934;2022-07-04T01:13:33;2.58;;;0.88;;
35026;SDS011;60696;51.426;6.934;2022-07-04T01:15:59;5.90;;;1.70;;
35026;SDS011;60696;51.426;6.934;2022-07-04T01:18:25;4.75;;;1.15;;
35026;SDS011;60696;51.426;6.934;2022-07-04T01:20:51;6.22;;;1.10;;
35026;SDS011;60696;51.426;6.934;2022-07-04T01:23:17;4.38;;;1.38;;
35026;SDS011;60696;51.426;6.934;2022-07-04T01:25:43;5.50;;;1.30;;
35026;SDS011;60696;51.426;6.934;2022-07-04T01:28:09;7.78;;;1.80;;
35026;SDS011;60696;51.426;6.934;2022-07-04T01:30:35;3.50;;;1.42;;
35026;SDS011;60696;51.426;6.934;2022-07-04T01:33:02;4.60;;;1.60;;
35026;SDS011;60696;51.426;6.934;2022-07-04T01:35:28;4.30;;;1.55;;
35026;SDS011;60696;51.426;6.934;2022-07-04T01:37:53;9.27;;;1.75;;
35026;SDS011;60696;51.426;6.934;2022-07-04T01:40:19;4.32;;;1.40;;
35026;SDS011;60696;51.426;6.934;2022-07-04T01:42:45;5.05;;;1.58;;
35026;SDS011;60696;51.426;6.934;2022-07-04T01:45:11;8.73;;;1.63;;
35026;SDS011;60696;51.426;6.934;2022-07-04T01:47:37;4.70;;;1.40;;
35026;SDS011;60696;51.426;6.934;2022-07-04T01:50:04;4.35;;;1.40;;
35026;SDS011;60696;51.426;6.934;2022-07-04T01:52:31;4.47;;;1.67;;
35026;SDS011;60696;51.426;6.934;2022-07-04T01:54:57;4.65;;;1.92;;
35026;SDS011;60696;51.426;6.934;2022-07-04T01:57:22;3.30;;;1.20;;
35026;SDS011;60696;51.426;6.934;2022-07-04T01:59:48;7.18;;;2.13;;
35026;SDS011;60696;51.426;6.934;2022-07-04T02:02:32;12.07;;;2.90;;
35026;SDS011;60696;51.426;6.934;2022-07-04T02:04:58;4.13;;;1.65;;
35026;SDS011;60696;51.426;6.934;2022-07-04T02:07:24;5.80;;;2.05;;
35026;SDS011;60696;51.426;6.934;2022-07-04T02:09:49;3.10;;;1.60;;
35026;SDS011;60696;51.426;6.934;2022-07-04T02:12:15;4.32;;;1.50;;
35026;SDS011;60696;51.426;6.934;2022-07-04T02:14:59;3.08;;;1.50;;
35026;SDS011;60696;51.426;6.934;2022-07-04T02:17:25;5.75;;;1.70;;
35026;SDS011;60696;51.426;6.934;2022-07-04T02:19:51;4.03;;;2.00;;
35026;SDS011;60696;51.426;6.934;2022-07-04T02:22:16;6.50;;;2.00;;
35026;SDS011;60696;51.426;6.934;2022-07-04T02:24:42;3.22;;;1.90;;
35026;SDS011;60696;51.426;6.934;2022-07-04T02:27:08;3.75;;;1.85;;
35026;SDS011;60696;51.426;6.934;2022-07-04T02:29:34;5.10;;;2.13;;
35026;SDS011;60696;51.426;6.934;2022-07-04T02:32:00;7.07;;;2.20;;
35026;SDS011;60696;51.426;6.934;2022-07-04T02:34:25;5.15;;;1.70;;
35026;SDS011;60696;51.426;6.934;2022-07-04T02:36:51;4.45;;;1.80;;
35026;SDS011;60696;51.426;6.934;2022-07-04T02:39:17;5.72;;;2.20;;
35026;SDS011;60696;51.426;6.934;2022-07-04T02:41:43;6.95;;;2.30;;
35026;SDS011;60696;51.426;6.934;2022-07-04T02:44:09;4.63;;;1.98;;
35026;SDS011;60696;51.426;6.934;2022-07-04T02:46:34;6.93;;;2.33;;
35026;SDS011;60696;51.426;6.934;2022-07-04T02:49:00;4.32;;;1.90;;
35026;SDS011;60696;51.426;6.934;2022-07-04T02:51:26;6.25;;;2.42;;
35026;SDS011;60696;51.426;6.934;2022-07-04T02:53:52;5.05;;;1.90;;
35026;SDS011;60696;51.426;6.934;2022-07-04T02:56:18;4.85;;;1.75;;
35026;SDS011;60696;51.426;6.934;2022-07-04T02:58:44;7.65;;;2.70;;
35026;SDS011;60696;51.426;6.934;2022-07-04T03:01:09;3.70;;;1.83;;
35026;SDS011;60696;51.426;6.934;2022-07-04T03:03:37;5.80;;;2.05;;
35026;SDS011;60696;51.426;6.934;2022-07-04T03:06:03;4.88;;;2.00;;
35026;SDS011;60696;51.426;6.934;2022-07-04T03:08:29;7.65;;;2.40;;
35026;SDS011;60696;51.426;6.934;2022-07-04T03:10:55;6.70;;;2.10;;
35026;SDS011;60696;51.426;6.934;2022-07-04T03:13:20;3.95;;;2.00;;
35026;SDS011;60696;51.426;6.934;2022-07-04T03:15:46;4.13;;;2.10;;
35026;SDS011;60696;51.426;6.934;2022-07-04T03:18:12;7.07;;;2.58;;
35026;SDS011;60696;51.426;6.934;2022-07-04T03:20:37;2.83;;;1.92;;
35026;SDS011;60696;51.426;6.934;2022-07-04T03:23:03;7.95;;;2.20;;
35026;SDS011;60696;51.426;6.934;2022-07-04T03:25:28;12.55;;;2.38;;
35026;SDS011;60696;51.426;6.934;2022-07-04T03:27:54;3.83;;;2.10;;
35026;SDS011;60696;51.426;6.934;2022-07-04T03:30:20;6.10;;;2.63;;
35026;SDS011;60696;51.426;6.934;2022-07-04T03:32:45;4.95;;;2.30;;
35026;SDS011;60696;51.426;6.934;2022-07-04T03:35:11;5.38;;;2.40;;
35026;SDS011;60696;51.426;6.934;2022-07-04T03:37:37;7.20;;;2.30;;
35026;SDS011;60696;51.426;6.934;2022-07-04T03:40:03;4.47;;;2.15;;
35026;SDS011;60696;51.426;6.934;2022-07-04T03:42:29;5.03;;;2.35;;
35026;SDS011;60696;51.426;6.934;2022-07-04T03:44:54;6.18;;;2.67;;
35026;SDS011;60696;51.426;6.934;2022-07-04T03:47:20;3.70;;;2.22;;
35026;SDS011;60696;51.426;6.934;2022-07-04T03:49:46;5.40;;;2.63;;
35026;SDS011;60696;51.426;6.934;2022-07-04T03:52:12;4.18;;;2.05;;
35026;SDS011;60696;51.426;6.934;2022-07-04T03:54:37;7.55;;;2.50;;
35026;SDS011;60696;51.426;6.934;2022-07-04T03:57:03;6.13;;;2.60;;
35026;SDS011;60696;51.426;6.934;2022-07-04T03:59:29;5.07;;;2.42;;
35026;SDS011;60696;51.426;6.934;2022-07-04T04:01:55;6.35;;;2.70;;
35026;SDS011;60696;51.426;6.934;2022-07-04T04:04:20;5.13;;;2.92;;
35026;SDS011;60696;51.426;6.934;2022-07-04T04:07:04;8.95;;;2.97;;
35026;SDS011;60696;51.426;6.934;2022-07-04T04:09:30;9.57;;;2.92;;
35026;SDS011;60696;51.426;6.934;2022-07-04T04:11:56;6.20;;;3.38;;
35026;SDS011;60696;51.426;6.934;2022-07-04T04:14:21;5.00;;;2.95;;
35026;SDS011;60696;51.426;6.934;2022-07-04T04:16:49;6.50;;;3.00;;
35026;SDS011;60696;51.426;6.934;2022-07-04T04:19:15;6.20;;;2.85;;
35026;SDS011;60696;51.426;6.934;2022-07-04T04:21:40;6.63;;;2.70;;
35026;SDS011;60696;51.426;6.934;2022-07-04T04:24:06;9.65;;;3.53;;
35026;SDS011;60696;51.426;6.934;2022-07-04T04:26:32;7.22;;;2.83;;
35026;SDS011;60696;51.426;6.934;2022-07-04T04:28:58;8.93;;;3.40;;
35026;SDS011;60696;51.426;6.934;2022-07-04T04:31:24;7.57;;;3.00;;
35026;SDS011;60696;51.426;6.934;2022-07-04T04:33:49;7.32;;;3.30;;
35026;SDS011;60696;51.426;6.934;2022-07-04T04:36:15;4.80;;;3.03;;
35026;SDS011;60696;51.426;6.934;2022-07-04T04:38:41;5.55;;;3.05;;
35026;SDS011;60696;51.426;6.934;2022-07-04T04:41:06;3.50;;;2.80;;
35026;SDS011;60696;51.426;6.934;2022-07-04T04:43:32;4.82;;;2.78;;
35026;SDS011;60696;51.426;6.934;2022-07-04T04:45:58;6.00;;;3.05;;
35026;SDS011;60696;51.426;6.934;2022-07-04T04:48:23;6.85;;;2.42;;
35026;SDS011;60696;51.426;6.934;2022-07-04T04:50:49;9.15;;;2.20;;
35026;SDS011;60696;51.426;6.934;2022-07-04T04:53:14;4.97;;;2.15;;
35026;SDS011;60696;51.426;6.934;2022-07-04T04:55:40;4.35;;;1.88;;
35026;SDS011;60696;51.426;6.934;2022-07-04T04:58:06;6.60;;;1.95;;
35026;SDS011;60696;51.426;6.934;2022-07-04T05:00:31;7.35;;;2.10;;
35026;SDS011;60696;51.426;6.934;2022-07-04T05:02:57;6.28;;;1.90;;
35026;SDS011;60696;51.426;6.934;2022-07-04T05:05:23;11.32;;;2.17;;
35026;SDS011;60696;51.426;6.934;2022-07-04T05:07:48;4.22;;;1.73;;
35026;SDS011;60696;51.426;6.934;2022-07-04T05:10:14;2.53;;;1.80;;
35026;SDS011;60696;51.426;6.934;2022-07-04T05:12:41;7.50;;;2.35;;
35026;SDS011;60696;51.426;6.934;2022-07-04T05:15:09;4.82;;;2.28;;
35026;SDS011;60696;51.426;6.934;2022-07-04T05:17:38;5.05;;;2.78;;
35026;SDS011;60696;51.426;6.934;2022-07-04T05:20:04;4.60;;;2.40;;
35026;SDS011;60696;51.426;6.934;2022-07-04T05:22:30;8.40;;;2.67;;
35026;SDS011;60696;51.426;6.934;2022-07-04T05:24:56;5.05;;;2.95;;
35026;SDS011;60696;51.426;6.934;2022-07-04T05:27:21;6.32;;;2.88;;
35026;SDS011;60696;51.426;6.934;2022-07-04T05:29:47;6.18;;;2.72;;
35026;SDS011;60696;51.426;6.934;2022-07-04T05:32:12;7.38;;;2.88;;
35026;SDS011;60696;51.426;6.934;2022-07-04T05:34:38;10.30;;;3.15;;
35026;SDS011;60696;51.426;6.934;2022-07-04T05:37:04;8.55;;;2.83;;
35026;SDS011;60696;51.426;6.934;2022-07-04T05:39:29;5.05;;;2.60;;
35026;SDS011;60696;51.426;6.934;2022-07-04T05:41:55;7.43;;;2.90;;
35026;SDS011;60696;51.426;6.934;2022-07-04T05:44:21;5.82;;;2.58;;
35026;SDS011;60696;51.426;6.934;2022-07-04T05:46:47;6.32;;;3.35;;
35026;SDS011;60696;51.426;6.934;2022-07-04T05:49:12;6.03;;;2.80;;
35026;SDS011;60696;51.426;6.934;2022-07-04T05:51:38;7.30;;;2.83;;
35026;SDS011;60696;51.426;6.934;2022-07-04T05:54:03;6.43;;;2.63;;
35026;SDS011;60696;51.426;6.934;2022-07-04T05:56:29;8.35;;;2.65;;
35026;SDS011;60696;51.426;6.934;2022-07-04T05:58:55;10.48;;;3.08;;
35026;SDS011;60696;51.426;6.934;2022-07-04T06:01:21;9.27;;;3.05;;
35026;SDS011;60696;51.426;6.934;2022-07-04T06:03:47;6.03;;;2.58;;
35026;SDS011;60696;51.426;6.934;2022-07-04T06:06:13;9.02;;;2.72;;
35026;SDS011;60696;51.426;6.934;2022-07-04T06:08:40;7.78;;;2.30;;
35026;SDS011;60696;51.426;6.934;2022-07-04T06:11:06;5.40;;;2.42;;
35026;SDS011;60696;51.426;6.934;2022-07-04T06:13:32;7.63;;;2.88;;
35026;SDS011;60696;51.426;6.934;2022-07-04T06:15:57;6.00;;;2.47;;
35026;SDS011;60696;51.426;6.934;2022-07-04T06:18:23;31.92;;;5.65;;
35026;SDS011;60696;51.426;6.934;2022-07-04T06:20:49;6.80;;;2.53;;
35026;SDS011;60696;51.426;6.934;2022-07-04T06:23:14;8.02;;;2.42;;
35026;SDS011;60696;51.426;6.934;2022-07-04T06:25:40;6.30;;;2.30;;
35026;SDS011;60696;51.426;6.934;2022-07-04T06:28:06;5.32;;;2.35;;
35026;SDS011;60696;51.426;6.934;2022-07-04T06:33:25;4.65;;;2.40;;
35026;SDS011;60696;51.426;6.934;2022-07-04T06:35:51;6.00;;;2.38;;
35026;SDS011;60696;51.426;6.934;2022-07-04T06:38:26;4.82;;;2.30;;
35026;SDS011;60696;51.426;6.934;2022-07-04T06:40:53;6.05;;;1.95;;
35026;SDS011;60696;51.426;6.934;2022-07-04T06:43:20;7.45;;;2.13;;
35026;SDS011;60696;51.426;6.934;2022-07-04T06:45:46;6.28;;;2.20;;
35026;SDS011;60696;51.426;6.934;2022-07-04T06:48:12;8.15;;;2.40;;
35026;SDS011;60696;51.426;6.934;2022-07-04T06:50:38;4.28;;;1.63;;
35026;SDS011;60696;51.426;6.934;2022-07-04T06:53:04;7.53;;;1.70;;
35026;SDS011;60696;51.426;6.934;2022-07-04T06:58:20;5.75;;;1.88;;
35026;SDS011;60696;51.426;6.934;2022-07-04T07:00:45;4.90;;;1.55;;
35026;SDS011;60696;51.426;6.934;2022-07-04T07:03:11;4.95;;;1.83;;
35026;SDS011;60696;51.426;6.934;2022-07-04T07:05:36;5.22;;;1.50;;
35026;SDS011;60696;51.426;6.934;2022-07-04T07:08:03;4.97;;;1.30;;
35026;SDS011;60696;51.426;6.934;2022-07-04T07:10:29;6.88;;;1.35;;
35026;SDS011;60696;51.426;6.934;2022-07-04T07:12:57;4.53;;;1.35;;
35026;SDS011;60696;51.426;6.934;2022-07-04T07:15:23;4.03;;;1.20;;
35026;SDS011;60696;51.426;6.934;2022-07-04T07:17:49;3.90;;;1.30;;
35026;SDS011;60696;51.426;6.934;2022-07-04T07:20:14;4.88;;;1.02;;
35026;SDS011;60696;51.426;6.934;2022-07-04T07:22:40;4.53;;;0.98;;
35026;SDS011;60696;51.426;6.934;2022-07-04T07:25:07;2.35;;;0.82;;
35026;SDS011;60696;51.426;6.934;2022-07-04T07:27:34;3.95;;;0.80;;
35026;SDS011;60696;51.426;6.934;2022-07-04T07:30:00;2.70;;;0.63;;
35026;SDS011;60696;51.426;6.934;2022-07-04T07:32:25;1.52;;;0.45;;
35026;SDS011;60696;51.426;6.934;2022-07-04T07:34:51;2.08;;;0.60;;
35026;SDS011;60696;51.426;6.934;2022-07-04T07:37:16;1.02;;;0.35;;
35026;SDS011;60696;51.426;6.934;2022-07-04T07:39:43;2.15;;;0.82;;
35026;SDS011;60696;51.426;6.934;2022-07-04T07:42:09;4.25;;;0.63;;
35026;SDS011;60696;51.426;6.934;2022-07-04T07:44:34;4.32;;;0.80;;
35026;SDS011;60696;51.426;6.934;2022-07-04T07:47:00;3.47;;;0.95;;
35026;SDS011;60696;51.426;6.934;2022-07-04T07:49:26;3.78;;;0.90;;
35026;SDS011;60696;51.426;6.934;2022-07-04T07:51:51;4.32;;;0.93;;
35026;SDS011;60696;51.426;6.934;2022-07-04T07:54:17;3.67;;;1.15;;
35026;SDS011;60696;51.426;6.934;2022-07-04T07:56:43;5.15;;;1.23;;
35026;SDS011;60696;51.426;6.934;2022-07-04T07:59:09;5.78;;;1.05;;
35026;SDS011;60696;51.426;6.934;2022-07-04T08:01:34;3.28;;;1.13;;
35026;SDS011;60696;51.426;6.934;2022-07-04T08:04:00;6.35;;;1.10;;
35026;SDS011;60696;51.426;6.934;2022-07-04T08:06:44;6.80;;;1.33;;
35026;SDS011;60696;51.426;6.934;2022-07-04T08:09:10;5.10;;;0.90;;
35026;SDS011;60696;51.426;6.934;2022-07-04T08:11:36;3.33;;;1.30;;
35026;SDS011;60696;51.426;6.934;2022-07-04T08:14:02;4.57;;;1.92;;
35026;SDS011;60696;51.426;6.934;2022-07-04T08:16:27;4.85;;;1.65;;
35026;SDS011;60696;51.426;6.934;2022-07-04T08:18:53;4.93;;;1.67;;
35026;SDS011;60696;51.426;6.934;2022-07-04T08:21:18;4.57;;;1.63;;
35026;SDS011;60696;51.426;6.934;2022-07-04T08:23:44;5.63;;;1.40;;
35026;SDS011;60696;51.426;6.934;2022-07-04T08:26:10;4.90;;;1.10;;
35026;SDS011;60696;51.426;6.934;2022-07-04T08:28:35;3.05;;;1.10;;
35026;SDS011;60696;51.426;6.934;2022-07-04T08:31:01;4.25;;;0.98;;
35026;SDS011;60696;51.426;6.934;2022-07-04T08:33:29;4.38;;;1.00;;
35026;SDS011;60696;51.426;6.934;2022-07-04T08:35:54;3.08;;;0.90;;
35026;SDS011;60696;51.426;6.934;2022-07-04T08:38:22;2.63;;;0.80;;
35026;SDS011;60696;51.426;6.934;2022-07-04T08:40:49;3.17;;;0.80;;
35026;SDS011;60696;51.426;6.934;2022-07-04T08:43:20;2.60;;;1.23;;
35026;SDS011;60696;51.426;6.934;2022-07-04T08:45:48;3.17;;;1.20;;
35026;SDS011;60696;51.426;6.934;2022-07-04T08:48:17;3.05;;;1.15;;
35026;SDS011;60696;51.426;6.934;2022-07-04T08:50:49;4.85;;;1.92;;
35026;SDS011;60696;51.426;6.934;2022-07-04T08:53:18;3.88;;;1.20;;
35026;SDS011;60696;51.426;6.934;2022-07-04T08:55:45;3.67;;;1.27;;
35026;SDS011;60696;51.426;6.934;2022-07-04T08:58:32;4.38;;;1.30;;
35026;SDS011;60696;51.426;6.934;2022-07-04T09:01:00;6.53;;;2.15;;
35026;SDS011;60696;51.426;6.934;2022-07-04T09:03:28;5.38;;;1.50;;
35026;SDS011;60696;51.426;6.934;2022-07-04T09:05:54;5.20;;;1.50;;
35026;SDS011;60696;51.426;6.934;2022-07-04T09:08:21;7.40;;;1.25;;
35026;SDS011;60696;51.426;6.934;2022-07-04T09:10:48;7.05;;;1.20;;
35026;SDS011;60696;51.426;6.934;2022-07-04T09:13:14;3.70;;;1.17;;
35026;SDS011;60696;51.426;6.934;2022-07-04T09:15:42;4.72;;;1.00;;
35026;SDS011;60696;51.426;6.934;2022-07-04T09:21:06;3.15;;;0.85;;
35026;SDS011;60696;51.426;6.934;2022-07-04T09:23:34;3.00;;;1.20;;
35026;SDS011;60696;51.426;6.934;2022-07-04T09:28:39;3.25;;;0.88;;
35026;SDS011;60696;51.426;6.934;2022-07-04T09:31:16;5.32;;;1.10;;
35026;SDS011;60696;51.426;6.934;2022-07-04T09:33:54;6.55;;;1.08;;
35026;SDS011;60696;51.426;6.934;2022-07-04T09:36:26;3.80;;;1.10;;
35026;SDS011;60696;51.426;6.934;2022-07-04T09:46:48;2.20;;;1.00;;
35026;SDS011;60696;51.426;6.934;2022-07-04T09:49:13;3.40;;;1.33;;
35026;SDS011;60696;51.426;6.934;2022-07-04T09:51:46;45.47;;;4.05;;
35026;SDS011;60696;51.426;6.934;2022-07-04T09:54:17;5.32;;;1.00;;
35026;SDS011;60696;51.426;6.934;2022-07-04T09:56:51;25.95;;;3.20;;
35026;SDS011;60696;51.426;6.934;2022-07-04T09:59:18;20.02;;;2.22;;
35026;SDS011;60696;51.426;6.934;2022-07-04T10:01:45;6.13;;;1.25;;
35026;SDS011;60696;51.426;6.934;2022-07-04T10:04:11;9.63;;;1.27;;
35026;SDS011;60696;51.426;6.934;2022-07-04T10:06:39;3.75;;;0.93;;
35026;SDS011;60696;51.426;6.934;2022-07-04T10:09:09;4.22;;;1.05;;
35026;SDS011;60696;51.426;6.934;2022-07-04T10:11:37;9.77;;;1.13;;
35026;SDS011;60696;51.426;6.934;2022-07-04T10:14:05;5.72;;;1.52;;
35026;SDS011;60696;51.426;6.934;2022-07-04T10:16:32;8.50;;;1.27;;
35026;SDS011;60696;51.426;6.934;2022-07-04T10:18:58;5.90;;;1.00;;
35026;SDS011;60696;51.426;6.934;2022-07-04T10:21:24;11.40;;;1.20;;
35026;SDS011;60696;51.426;6.934;2022-07-04T10:23:50;7.50;;;1.63;;
35026;SDS011;60696;51.426;6.934;2022-07-04T10:26:20;6.30;;;1.30;;
35026;SDS011;60696;51.426;6.934;2022-07-04T10:28:47;7.82;;;1.00;;
35026;SDS011;60696;51.426;6.934;2022-07-04T10:31:16;5.93;;;1.20;;
35026;SDS011;60696;51.426;6.934;2022-07-04T10:33:42;9.52;;;1.77;;
35026;SDS011;60696;51.426;6.934;2022-07-04T10:36:19;6.55;;;1.75;;
35026;SDS011;60696;51.426;6.934;2022-07-04T10:38:52;2.63;;;0.90;;
35026;SDS011;60696;51.426;6.934;2022-07-04T10:41:28;12.25;;;1.90;;
35026;SDS011;60696;51.426;6.934;2022-07-04T10:46:35;4.97;;;1.23;;
35026;SDS011;60696;51.426;6.934;2022-07-04T10:54:04;11.30;;;1.40;;
35026;SDS011;60696;51.426;6.934;2022-07-04T10:56:52;8.52;;;1.00;;
35026;SDS011;60696;51.426;6.934;2022-07-04T10:59:25;8.55;;;1.40;;
35026;SDS011;60696;51.426;6.934;2022-07-04T11:20:26;3.97;;;0.60;;
35026;SDS011;60696;51.426;6.934;2022-07-04T11:23:14;5.13;;;0.73;;
35026;SDS011;60696;51.426;6.934;2022-07-04T11:25:41;3.40;;;0.60;;
35026;SDS011;60696;51.426;6.934;2022-07-04T11:30:57;56.20;;;4.00;;
35026;SDS011;60696;51.426;6.934;2022-07-04T11:33:28;1.55;;;0.65;;
35026;SDS011;60696;51.426;6.934;2022-07-04T11:38:47;10.23;;;1.10;;
35026;SDS011;60696;51.426;6.934;2022-07-04T11:41:22;12.25;;;1.90;;
35026;SDS011;60696;51.426;6.934;2022-07-04T11:44:07;7.57;;;0.80;;
35026;SDS011;60696;51.426;6.934;2022-07-04T11:47:09;3.28;;;0.68;;
35026;SDS011;60696;51.426;6.934;2022-07-04T11:49:56;1.98;;;0.60;;
35026;SDS011;60696;51.426;6.934;2022-07-04T11:52:37;3.30;;;0.55;;
35026;SDS011;60696;51.426;6.934;2022-07-04T11:55:09;24.23;;;1.70;;
35026;SDS011;60696;51.426;6.934;2022-07-04T11:57:37;6.03;;;0.85;;
35026;SDS011;60696;51.426;6.934;2022-07-04T12:02:40;1.52;;;0.52;;
35026;SDS011;60696;51.426;6.934;2022-07-04T14:21:55;2.33;;;0.70;;
35026;SDS011;60696;51.426;6.934;2022-07-04T14:24:21;2.20;;;0.70;;
35026;SDS011;60696;51.426;6.934;2022-07-04T14:26:46;3.72;;;0.80;;
35026;SDS011;60696;51.426;6.934;2022-07-04T14:29:12;3.08;;;0.73;;
35026;SDS011;60696;51.426;6.934;2022-07-04T14:31:39;2.75;;;0.85;;
35026;SDS011;60696;51.426;6.934;2022-07-04T14:34:04;3.70;;;0.90;;
35026;SDS011;60696;51.426;6.934;2022-07-04T14:36:32;3.08;;;1.00;;
35026;SDS011;60696;51.426;6.934;2022-07-04T14:38:58;1.88;;;0.82;;
35026;SDS011;60696;51.426;6.934;2022-07-04T14:41:24;3.88;;;0.95;;
35026;SDS011;60696;51.426;6.934;2022-07-04T14:43:50;2.13;;;0.80;;
35026;SDS011;60696;51.426;6.934;2022-07-04T14:46:19;3.35;;;0.80;;
35026;SDS011;60696;51.426;6.934;2022-07-04T14:48:45;2.78;;;0.60;;
35026;SDS011;60696;51.426;6.934;2022-07-04T14:51:11;11.98;;;0.90;;
35026;SDS011;60696;51.426;6.934;2022-07-04T14:53:37;3.33;;;0.77;;
35026;SDS011;60696;51.426;6.934;2022-07-04T14:56:02;2.80;;;0.82;;
35026;SDS011;60696;51.426;6.934;2022-07-04T14:58:28;3.65;;;0.80;;
35026;SDS011;60696;51.426;6.934;2022-07-04T15:00:54;5.72;;;0.70;;
35026;SDS011;60696;51.426;6.934;2022-07-04T15:03:20;1.80;;;0.60;;
35026;SDS011;60696;51.426;6.934;2022-07-04T15:05:46;2.67;;;0.70;;
35026;SDS011;60696;51.426;6.934;2022-07-04T15:08:12;8.57;;;0.93;;
35026;SDS011;60696;51.426;6.934;2022-07-04T15:10:38;4.43;;;0.65;;
35026;SDS011;60696;51.426;6.934;2022-07-04T15:13:04;5.55;;;0.80;;
35026;SDS011;60696;51.426;6.934;2022-07-04T15:15:29;1.25;;;0.60;;
35026;SDS011;60696;51.426;6.934;2022-07-04T15:17:55;2.65;;;0.70;;
35026;SDS011;60696;51.426;6.934;2022-07-04T15:20:20;4.20;;;0.90;;
35026;SDS011;60696;51.426;6.934;2022-07-04T15:23:04;19.50;;;1.38;;
35026;SDS011;60696;51.426;6.934;2022-07-04T15:25:49;3.58;;;0.93;;
35026;SDS011;60696;51.426;6.934;2022-07-04T15:28:14;2.80;;;0.80;;
35026;SDS011;60696;51.426;6.934;2022-07-04T15:30:40;3.17;;;0.70;;
35026;SDS011;60696;51.426;6.934;2022-07-04T15:33:06;3.85;;;0.60;;
35026;SDS011;60696;51.426;6.934;2022-07-04T15:35:31;2.00;;;0.68;;
35026;SDS011;60696;51.426;6.934;2022-07-04T15:37:57;3.70;;;0.60;;
35026;SDS011;60696;51.426;6.934;2022-07-04T15:40:23;1.38;;;0.70;;
35026;SDS011;60696;51.426;6.934;2022-07-04T15:42:48;5.32;;;0.80;;
35026;SDS011;60696;51.426;6.934;2022-07-04T15:45:14;4.45;;;1.13;;
35026;SDS011;60696;51.426;6.934;2022-07-04T15:47:40;3.53;;;0.70;;
35026;SDS011;60696;51.426;6.934;2022-07-04T15:50:05;4.43;;;0.90;;
35026;SDS011;60696;51.426;6.934;2022-07-04T15:52:33;4.63;;;1.13;;
35026;SDS011;60696;51.426;6.934;2022-07-04T15:54:58;8.13;;;0.93;;
35026;SDS011;60696;51.426;6.934;2022-07-04T15:57:24;3.58;;;0.80;;
35026;SDS011;60696;51.426;6.934;2022-07-04T15:59:49;3.45;;;0.57;;
35026;SDS011;60696;51.426;6.934;2022-07-04T16:02:15;1.40;;;0.52;;
35026;SDS011;60696;51.426;6.934;2022-07-04T16:04:41;5.70;;;1.05;;
35026;SDS011;60696;51.426;6.934;2022-07-04T16:07:07;1.98;;;0.60;;
35026;SDS011;60696;51.426;6.934;2022-07-04T16:09:32;2.70;;;0.88;;
35026;SDS011;60696;51.426;6.934;2022-07-04T16:11:58;3.70;;;1.10;;
35026;SDS011;60696;51.426;6.934;2022-07-04T16:14:24;3.40;;;0.55;;
35026;SDS011;60696;51.426;6.934;2022-07-04T16:16:49;2.83;;;0.60;;
35026;SDS011;60696;51.426;6.934;2022-07-04T16:19:15;7.30;;;0.95;;
35026;SDS011;60696;51.426;6.934;2022-07-04T16:21:41;3.42;;;0.77;;
35026;SDS011;60696;51.426;6.934;2022-07-04T16:24:07;5.32;;;0.80;;
35026;SDS011;60696;51.426;6.934;2022-07-04T16:26:33;2.10;;;0.88;;
35026;SDS011;60696;51.426;6.934;2022-07-04T16:28:59;6.25;;;0.80;;
35026;SDS011;60696;51.426;6.934;2022-07-04T16:31:25;2.22;;;0.80;;
35026;SDS011;60696;51.426;6.934;2022-07-04T16:33:51;5.55;;;0.80;;
35026;SDS011;60696;51.426;6.934;2022-07-04T16:36:17;2.53;;;0.68;;
35026;SDS011;60696;51.426;6.934;2022-07-04T16:38:42;4.40;;;0.80;;
35026;SDS011;60696;51.426;6.934;2022-07-04T16:41:08;1.45;;;0.70;;
35026;SDS011;60696;51.426;6.934;2022-07-04T16:43:34;5.53;;;0.90;;
35026;SDS011;60696;51.426;6.934;2022-07-04T16:46:02;2.72;;;0.80;;
35026;SDS011;60696;51.426;6.934;2022-07-04T16:48:27;2.75;;;0.95;;
35026;SDS011;60696;51.426;6.934;2022-07-04T16:50:53;4.22;;;0.98;;
35026;SDS011;60696;51.426;6.934;2022-07-04T16:53:19;5.60;;;0.70;;
35026;SDS011;60696;51.426;6.934;2022-07-04T16:55:44;1.83;;;0.70;;
35026;SDS011;60696;51.426;6.934;2022-07-04T16:58:10;3.50;;;0.82;;
35026;SDS011;60696;51.426;6.934;2022-07-04T17:00:36;5.35;;;1.00;;
35026;SDS011;60696;51.426;6.934;2022-07-04T17:03:02;3.38;;;0.82;;
35026;SDS011;60696;51.426;6.934;2022-07-04T17:05:28;3.70;;;1.00;;
35026;SDS011;60696;51.426;6.934;2022-07-04T17:07:54;4.28;;;1.02;;
35026;SDS011;60696;51.426;6.934;2022-07-04T17:10:20;4.88;;;1.02;;
35026;SDS011;60696;51.426;6.934;2022-07-04T17:35:04;5.78;;;1.45;;
35026;SDS011;60696;51.426;6.934;2022-07-04T17:37:30;5.35;;;1.50;;
35026;SDS011;60696;51.426;6.934;2022-07-04T17:39:56;3.78;;;1.30;;
35026;SDS011;60696;51.426;6.934;2022-07-04T17:42:21;2.65;;;1.20;;
35026;SDS011;60696;51.426;6.934;2022-07-04T17:44:47;5.65;;;1.23;;
35026;SDS011;60696;51.426;6.934;2022-07-04T17:47:13;21.95;;;1.83;;
35026;SDS011;60696;51.426;6.934;2022-07-04T17:49:38;4.78;;;1.17;;
35026;SDS011;60696;51.426;6.934;2022-07-04T17:52:04;4.68;;;1.30;;
35026;SDS011;60696;51.426;6.934;2022-07-04T17:54:30;5.25;;;1.60;;
35026;SDS011;60696;51.426;6.934;2022-07-04T17:56:55;3.40;;;1.40;;
35026;SDS011;60696;51.426;6.934;2022-07-04T17:59:21;10.10;;;2.22;;
35026;SDS011;60696;51.426;6.934;2022-07-04T18:01:48;10.63;;;1.90;;
35026;SDS011;60696;51.426;6.934;2022-07-04T18:04:15;9.07;;;2.17;;
35026;SDS011;60696;51.426;6.934;2022-07-04T18:06:41;6.95;;;1.85;;
35026;SDS011;60696;51.426;6.934;2022-07-04T18:09:07;6.22;;;1.90;;
35026;SDS011;60696;51.426;6.934;2022-07-04T18:11:33;7.72;;;2.08;;
35026;SDS011;60696;51.426;6.934;2022-07-04T18:13:59;6.53;;;2.10;;
35026;SDS011;60696;51.426;6.934;2022-07-04T18:16:25;5.72;;;2.22;;
35026;SDS011;60696;51.426;6.934;2022-07-04T18:18:51;6.90;;;2.10;;